Time;durP1;ratioP1;P1;durP2;ratioP2;P2;SDS_P1;SDS_P2;PMS_P1;PMS_P2;Temp;Humidity;BMP_temperature;BMP_pressure;BME280_temperature;BME280_humidity;BME280_pressure;Samples;Min_cycle;Max_cycle;Signal;HPM_P1;HPM_P2
2023/05/11 00:02:23;;;;;;;0.10;0.10;;;;;;;15.76;67.87;101520.00;5053969;28;20064;-80
2023/05/11 00:04:49;;;;;;;0.10;0.10;;;;;;;15.74;67.89;101515.63;5057183;28;20028;-79
2023/05/11 00:07:15;;;;;;;0.10;0.10;;;;;;;15.73;67.92;101514.75;5058544;28;20025;-79
2023/05/11 00:09:41;;;;;;;0.10;0.10;;;;;;;15.73;67.87;101525.44;5060182;28;20033;-79
2023/05/11 00:12:07;;;;;;;0.10;0.10;;;;;;;15.72;67.69;101523.69;5062490;28;20040;-80
2023/05/11 00:14:33;;;;;;;0.10;0.10;;;;;;;15.73;67.80;101529.94;5058486;28;20041;-79
2023/05/11 00:17:00;;;;;;;0.22;0.22;;;;;;;15.72;68.07;101529.03;5059177;28;20025;-80
2023/05/11 00:19:26;;;;;;;0.00;0.00;;;;;;;15.72;67.94;101526.38;5058980;28;20037;-80
2023/05/11 00:21:53;;;;;;;0.20;0.20;;;;;;;15.73;68.04;101529.94;5056050;28;20032;-80
2023/05/11 00:24:19;;;;;;;0.10;0.10;;;;;;;15.73;68.12;101525.44;5056772;28;20036;-80
2023/05/11 00:26:45;;;;;;;0.40;0.40;;;;;;;15.73;68.05;101524.59;5055451;28;20517;-80
2023/05/11 00:29:11;;;;;;;0.40;0.40;;;;;;;15.73;68.15;101525.44;5055704;28;20039;-81
2023/05/11 00:31:37;;;;;;;0.10;0.10;;;;;;;15.74;68.03;101520.97;5054049;28;20028;-80
2023/05/11 00:34:03;;;;;;;0.25;0.25;;;;;;;15.74;68.06;101519.19;5055340;28;20036;-81
2023/05/11 00:36:29;;;;;;;0.38;0.38;;;;;;;15.74;68.08;101513.84;5060356;28;20036;-80
2023/05/11 00:38:55;;;;;;;0.10;0.10;;;;;;;15.74;68.38;101516.53;5060819;28;20029;-80
2023/05/11 00:41:21;;;;;;;0.65;0.65;;;;;;;15.73;68.26;101520.13;5063065;28;20035;-80
2023/05/11 00:43:48;;;;;;;0.10;0.10;;;;;;;15.71;67.98;101519.28;5061915;28;20044;-80
2023/05/11 00:46:14;;;;;;;0.10;0.10;;;;;;;15.69;68.13;101521.13;5059223;28;20402;-81
2023/05/11 00:48:40;;;;;;;0.32;0.32;;;;;;;15.65;68.04;101519.47;5059965;28;20033;-80
2023/05/11 00:51:06;;;;;;;0.10;0.10;;;;;;;15.64;68.21;101517.75;5062900;28;20056;-80
2023/05/11 00:53:32;;;;;;;0.10;0.10;;;;;;;15.63;68.42;101522.19;5055756;28;20036;-79
2023/05/11 00:55:59;;;;;;;0.10;0.10;;;;;;;15.62;68.72;101522.25;5061261;28;20040;-80
2023/05/11 00:58:25;;;;;;;0.10;0.10;;;;;;;15.60;68.55;101524.06;5060029;28;20089;-80
2023/05/11 01:00:51;;;;;;;0.10;0.10;;;;;;;15.59;68.55;101522.31;5059541;28;20040;-81
2023/05/11 01:03:18;;;;;;;0.47;0.47;;;;;;;15.58;68.61;101523.25;5056033;28;20025;-80
2023/05/11 01:06:01;;;;;;;0.10;0.10;;;;;;;15.61;68.85;101525.81;5062475;28;20430;-80
2023/05/11 01:08:38;;;;;;;0.68;0.68;;;;;;;15.59;68.76;101527.66;5054261;28;20052;-80
2023/05/11 01:11:30;;;;;;;0.10;0.10;;;;;;;15.58;68.97;101528.59;5057033;28;20092;-80
2023/05/11 01:14:05;;;;;;;0.10;0.10;;;;;;;15.56;68.99;101525.09;5065697;28;20044;-80
2023/05/11 01:16:36;;;;;;;0.32;0.32;;;;;;;15.53;69.09;101532.25;5061321;28;20502;-82
2023/05/11 01:19:17;;;;;;;0.13;0.13;;;;;;;15.56;68.80;101523.28;5055409;28;20021;-81
2023/05/11 01:21:45;;;;;;;0.10;0.10;;;;;;;15.52;69.18;101521.63;5057171;28;20028;-81
2023/05/11 01:24:51;;;;;;;0.20;0.20;;;;;;;15.59;69.16;101522.31;5053495;28;20516;-81
2023/05/11 01:27:38;;;;;;;0.10;0.10;;;;;;;15.57;69.11;101525.03;5059405;28;20086;-81
2023/05/11 01:30:26;;;;;;;0.63;0.63;;;;;;;15.60;68.95;101518.72;5062063;28;20037;-80
2023/05/11 01:32:57;;;;;;;0.10;0.10;;;;;;;15.53;68.90;101521.59;5065402;28;20490;-80
2023/05/11 01:35:26;;;;;;;9.88;1.42;;;;;;;15.50;69.09;101524.34;5062878;28;20402;-80
2023/05/11 01:37:56;;;;;;;0.20;0.20;;;;;;;15.51;69.10;101531.47;5056265;28;20025;-79
2023/05/11 01:40:26;;;;;;;0.10;0.10;;;;;;;15.50;69.14;101529.69;5065685;28;20021;-81
2023/05/11 01:43:17;;;;;;;1.02;0.80;;;;;;;15.52;69.36;101538.53;5056250;28;20025;-80
2023/05/11 01:45:47;;;;;;;0.10;0.10;;;;;;;15.50;69.38;101540.38;5056819;28;20036;-79
2023/05/11 01:48:19;;;;;;;0.13;0.13;;;;;;;15.49;69.07;101533.28;5050060;28;20030;-80
2023/05/11 01:50:47;;;;;;;1.77;0.45;;;;;;;15.48;69.08;101534.19;5062008;28;20040;-80
2023/05/11 01:53:16;;;;;;;0.10;0.10;;;;;;;15.48;69.28;101536.88;5061016;28;20024;-79
2023/05/11 01:55:44;;;;;;;0.10;0.10;;;;;;;15.48;69.46;101533.34;5060873;28;20060;-79
2023/05/11 01:58:13;;;;;;;0.50;0.50;;;;;;;15.48;69.35;101536.88;5063817;28;20394;-80
2023/05/11 02:00:42;;;;;;;0.10;0.10;;;;;;;15.45;69.08;101531.63;5055548;28;20036;-79
2023/05/11 02:03:09;;;;;;;0.30;0.30;;;;;;;15.44;69.30;101531.66;5065160;28;20029;-80
2023/05/11 02:05:38;;;;;;;0.22;0.22;;;;;;;15.43;69.23;101538.81;5067082;28;20064;-80
2023/05/11 02:08:06;;;;;;;0.10;0.10;;;;;;;15.43;69.43;101537.94;5066993;28;20028;-80
2023/05/11 02:10:33;;;;;;;0.10;0.10;;;;;;;15.41;69.28;101542.44;5057544;28;20120;-79
2023/05/11 02:13:01;;;;;;;0.10;0.10;;;;;;;15.41;69.18;101547.78;5063545;28;20063;-81
2023/05/11 02:15:29;;;;;;;0.10;0.10;;;;;;;15.40;69.39;101543.34;5059886;28;20032;-79
2023/05/11 02:17:56;;;;;;;0.10;0.10;;;;;;;15.40;69.34;101546.03;5062147;28;20049;-79
2023/05/11 02:20:24;;;;;;;0.52;0.52;;;;;;;15.39;69.45;101547.84;5065447;28;20141;-79
2023/05/11 02:22:52;;;;;;;0.08;0.08;;;;;;;15.40;69.34;101549.56;5057598;28;20112;-79
2023/05/11 02:25:19;;;;;;;0.10;0.10;;;;;;;15.41;69.70;101548.66;5061065;28;20112;-80
2023/05/11 02:27:45;;;;;;;1.13;1.13;;;;;;;15.42;69.69;101544.19;5058422;28;20029;-79
2023/05/11 02:30:12;;;;;;;0.10;0.10;;;;;;;15.42;69.50;101547.72;5068005;28;20071;-79
2023/05/11 02:32:46;;;;;;;0.15;0.15;;;;;;;15.45;69.65;101542.31;5071168;28;20029;-78
2023/05/11 02:35:19;;;;;;;0.10;0.10;;;;;;;15.47;69.84;101548.47;5068596;28;20035;-79
2023/05/11 02:37:47;;;;;;;0.10;0.10;;;;;;;15.46;69.97;101538.69;5063100;28;20040;-80
2023/05/11 02:40:17;;;;;;;0.20;0.20;;;;;;;15.50;69.69;101545.72;5058935;28;20029;-79
2023/05/11 02:42:47;;;;;;;0.30;0.30;;;;;;;15.50;69.76;101539.50;5058429;28;20038;-80
2023/05/11 02:45:16;;;;;;;0.20;0.20;;;;;;;15.50;69.65;101540.38;5064069;28;21231;-80
2023/05/11 02:47:46;;;;;;;0.10;0.10;;;;;;;15.51;69.83;101536.78;5057347;28;20025;-80
2023/05/11 02:50:15;;;;;;;0.32;0.32;;;;;;;15.51;69.88;101541.25;5059139;28;20037;-79
2023/05/11 02:52:45;;;;;;;0.10;0.10;;;;;;;15.53;69.86;101540.28;5064526;28;20474;-79
2023/05/11 02:55:14;;;;;;;0.10;0.10;;;;;;;15.55;69.71;101534.03;5068871;28;20025;-79
2023/05/11 02:57:41;;;;;;;0.10;0.10;;;;;;;15.55;69.64;101531.34;5065592;28;20051;-79
2023/05/11 03:00:09;;;;;;;1.20;1.20;;;;;;;15.53;69.53;101542.09;5060475;28;20090;-80
2023/05/11 03:02:35;;;;;;;0.10;0.10;;;;;;;15.54;69.54;101543.84;5062018;28;20029;-81
2023/05/11 03:05:01;;;;;;;0.10;0.10;;;;;;;15.55;69.59;101542.03;5059776;28;20046;-80
2023/05/11 03:07:27;;;;;;;0.25;0.25;;;;;;;15.55;69.86;101542.03;5057410;28;20017;-80
2023/05/11 03:09:53;;;;;;;0.10;0.10;;;;;;;15.54;69.57;101546.50;5055593;28;20040;-80
2023/05/11 03:12:20;;;;;;;0.10;0.10;;;;;;;15.56;69.62;101549.13;5061054;28;20041;-81
2023/05/11 03:14:48;;;;;;;0.10;0.10;;;;;;;15.56;69.54;101549.13;5060526;28;20119;-80
2023/05/11 03:17:15;;;;;;;0.10;0.10;;;;;;;15.56;69.49;101544.66;5061254;28;20036;-81
2023/05/11 03:19:42;;;;;;;0.10;0.10;;;;;;;15.56;69.61;101539.31;5061475;28;20082;-81
2023/05/11 03:22:09;;;;;;;0.10;0.10;;;;;;;15.56;69.85;101535.78;5062401;28;20633;-80
2023/05/11 03:24:37;;;;;;;0.45;0.45;;;;;;;15.56;69.95;101533.09;5061714;28;20399;-80
2023/05/11 03:27:06;;;;;;;0.17;0.17;;;;;;;15.56;69.67;101530.44;5067531;28;20055;-79
2023/05/11 03:29:33;;;;;;;0.03;0.03;;;;;;;15.56;69.80;101530.44;5058463;28;20033;-80
2023/05/11 03:31:59;;;;;;;0.10;0.10;;;;;;;15.55;69.61;101532.22;5059574;28;20025;-80
2023/05/11 03:34:25;;;;;;;0.30;0.30;;;;;;;15.55;69.72;101526.00;5059533;28;20081;-81
2023/05/11 03:36:53;;;;;;;0.10;0.10;;;;;;;15.55;69.72;101531.34;5060419;28;20399;-81
2023/05/11 03:39:21;;;;;;;0.10;0.10;;;;;;;15.53;69.62;101529.59;5065284;28;20028;-80
2023/05/11 03:41:51;;;;;;;0.47;0.47;;;;;;;15.54;69.80;101527.81;5063462;28;20067;-79
2023/05/11 03:44:20;;;;;;;0.10;0.10;;;;;;;15.52;69.60;101526.97;5060991;28;20029;-80
2023/05/11 03:46:49;;;;;;;0.10;0.10;;;;;;;15.50;69.89;101535.03;5061748;28;20055;-80
2023/05/11 03:49:16;;;;;;;0.10;0.10;;;;;;;15.49;69.70;101522.59;5061093;28;20033;-80
2023/05/11 03:51:43;;;;;;;0.10;0.10;;;;;;;15.48;69.79;101520.84;5061353;28;20189;-80
2023/05/11 03:54:09;;;;;;;0.10;0.10;;;;;;;15.49;69.85;101522.59;5062123;28;20036;-80
2023/05/11 03:56:37;;;;;;;0.45;0.45;;;;;;;15.48;69.91;101520.84;5068381;28;20076;-80
2023/05/11 03:59:04;;;;;;;0.10;0.10;;;;;;;15.46;69.89;101520.00;5062011;28;20049;-79
2023/05/11 04:01:31;;;;;;;0.10;0.10;;;;;;;15.45;69.76;101520.94;5068903;28;20047;-80
2023/05/11 04:03:57;;;;;;;0.10;0.10;;;;;;;15.44;69.74;101529.00;5060907;28;20057;-79
2023/05/11 04:06:24;;;;;;;0.10;0.10;;;;;;;15.42;69.70;101529.03;5061369;28;20037;-79
2023/05/11 04:08:50;;;;;;;0.20;0.20;;;;;;;15.41;70.03;101529.94;5061913;28;20025;-78
2023/05/11 04:11:16;;;;;;;0.10;0.10;;;;;;;15.40;69.95;101525.53;5061684;28;20041;-79
2023/05/11 04:13:42;;;;;;;0.10;0.10;;;;;;;15.39;69.99;101518.47;5055665;28;20035;-79
2023/05/11 04:16:08;;;;;;;0.10;0.10;;;;;;;15.38;69.82;101519.38;5055362;28;20067;-79
2023/05/11 04:18:34;;;;;;;0.10;0.10;;;;;;;15.37;69.92;101528.31;5055449;28;20028;-79
2023/05/11 04:21:00;;;;;;;0.30;0.30;;;;;;;15.34;69.79;101526.59;5058468;28;20033;-80
2023/05/11 04:23:26;;;;;;;0.10;0.10;;;;;;;15.35;70.08;101530.13;5060977;28;20080;-79
2023/05/11 04:25:54;;;;;;;0.40;0.40;;;;;;;15.34;69.95;101523.06;5055352;28;20029;-78
2023/05/11 04:28:22;;;;;;;0.40;0.40;;;;;;;15.35;69.93;101530.13;5057696;28;20024;-77
2023/05/11 04:30:53;;;;;;;0.10;0.10;;;;;;;15.37;69.90;101536.31;5058301;28;20052;-80
2023/05/11 04:33:19;;;;;;;0.10;0.10;;;;;;;15.37;70.13;101539.84;5058790;28;20029;-80
2023/05/11 04:35:45;;;;;;;0.52;0.52;;;;;;;15.39;70.08;101547.84;5057824;28;20123;-79
2023/05/11 04:38:11;;;;;;;0.10;0.10;;;;;;;15.41;70.26;101539.78;5056446;28;20017;-79
2023/05/11 04:40:37;;;;;;;0.10;0.10;;;;;;;15.43;69.87;101543.28;5057406;28;20414;-80
2023/05/11 04:43:03;;;;;;;0.35;0.35;;;;;;;15.45;70.19;101542.31;5057819;28;20047;-80
2023/05/11 04:45:29;;;;;;;0.10;0.10;;;;;;;15.47;70.06;101548.47;5058337;28;20041;-79
2023/05/11 04:47:55;;;;;;;0.10;0.10;;;;;;;15.51;70.12;101544.81;5059025;28;20556;-80
2023/05/11 04:50:21;;;;;;;0.10;0.10;;;;;;;15.55;70.14;101550.03;5054509;28;20053;-80
2023/05/11 04:52:47;;;;;;;0.10;0.10;;;;;;;15.58;69.99;101547.31;5062517;28;20029;-79
2023/05/11 04:55:15;;;;;;;0.10;0.10;;;;;;;15.61;69.90;101544.53;5054440;28;20041;-79
2023/05/11 04:57:41;;;;;;;0.10;0.10;;;;;;;15.64;69.76;101550.66;5056372;28;20025;-79
2023/05/11 05:00:08;;;;;;;0.10;0.10;;;;;;;15.67;69.90;101547.88;5055339;28;20032;-79
2023/05/11 05:02:34;;;;;;;0.10;0.10;;;;;;;15.72;69.51;101547.75;5057575;28;20025;-79
2023/05/11 05:05:00;;;;;;;0.10;0.10;;;;;;;15.75;69.55;101555.69;5054752;28;20055;-79
2023/05/11 05:07:26;;;;;;;0.10;0.10;;;;;;;15.79;69.42;101551.13;5053275;28;20029;-79
2023/05/11 05:09:52;;;;;;;0.10;0.10;;;;;;;15.83;69.67;101548.31;5056792;28;20086;-79
2023/05/11 05:12:19;;;;;;;0.10;0.10;;;;;;;15.85;69.33;101551.84;5055962;28;20564;-79
2023/05/11 05:14:45;;;;;;;0.10;0.10;;;;;;;15.89;69.65;101555.28;5055818;28;20151;-79
2023/05/11 05:17:11;;;;;;;0.10;0.10;;;;;;;15.91;69.24;101555.22;5056057;28;20021;-79
2023/05/11 05:19:37;;;;;;;0.10;0.10;;;;;;;15.93;69.46;101558.75;5055529;28;20042;-79
2023/05/11 05:22:04;;;;;;;1.00;1.00;;;;;;;15.95;69.17;101562.22;5054963;28;20033;-79
2023/05/11 05:24:30;;;;;;;0.47;0.47;;;;;;;15.98;69.48;101565.69;5053211;28;20041;-79
2023/05/11 05:26:56;;;;;;;0.10;0.10;;;;;;;16.04;69.32;101572.63;5054037;28;20040;-79
2023/05/11 05:29:22;;;;;;;0.10;0.10;;;;;;;16.09;69.14;101573.38;5053540;28;20045;-79
2023/05/11 05:31:48;;;;;;;0.05;0.05;;;;;;;16.12;69.02;101573.25;5058328;28;20092;-80
2023/05/11 05:34:14;;;;;;;0.10;0.10;;;;;;;16.16;69.26;101579.38;5058231;28;20029;-80
2023/05/11 05:36:40;;;;;;;0.15;0.15;;;;;;;16.22;69.28;101581.00;5059864;28;20399;-79
2023/05/11 05:39:10;;;;;;;0.10;0.10;;;;;;;16.25;69.28;101579.09;5057705;28;20035;-79
2023/05/11 05:41:36;;;;;;;0.10;0.10;;;;;;;16.31;68.95;101583.38;5059933;28;20036;-80
2023/05/11 05:44:03;;;;;;;0.30;0.30;;;;;;;16.34;68.70;101569.91;5057391;28;20032;-80
2023/05/11 05:46:29;;;;;;;0.10;0.10;;;;;;;16.39;68.66;101581.34;5055647;28;20041;-81
2023/05/11 05:48:55;;;;;;;0.10;0.10;;;;;;;16.44;68.77;101581.19;5055812;28;20040;-81
2023/05/11 05:51:21;;;;;;;0.10;0.10;;;;;;;16.48;68.63;101583.69;5053790;28;20029;-81
2023/05/11 05:53:48;;;;;;;0.20;0.20;;;;;;;16.50;68.67;101579.19;5058707;28;20029;-81
2023/05/11 05:56:14;;;;;;;3.00;0.90;;;;;;;16.54;68.41;101577.28;5060924;28;20044;-80
2023/05/11 05:58:42;;;;;;;0.10;0.10;;;;;;;16.56;68.37;101579.88;5060023;28;20017;-79
2023/05/11 06:01:08;;;;;;;1.10;0.65;;;;;;;16.60;68.55;101585.09;5058252;28;20021;-81
2023/05/11 06:03:34;;;;;;;0.10;0.10;;;;;;;16.61;68.16;101584.19;5060440;28;20036;-80
2023/05/11 06:06:01;;;;;;;0.10;0.10;;;;;;;16.66;68.13;101592.91;5060032;28;20033;-79
2023/05/11 06:08:27;;;;;;;0.10;0.10;;;;;;;16.72;68.31;101597.16;5056771;28;20101;-80
2023/05/11 06:10:53;;;;;;;3.42;1.00;;;;;;;16.76;68.18;101596.16;5061744;28;20041;-80
2023/05/11 06:13:19;;;;;;;0.20;0.20;;;;;;;16.80;68.32;101599.63;5065685;28;20080;-80
2023/05/11 06:15:45;;;;;;;0.20;0.20;;;;;;;16.87;68.21;101601.13;5061851;28;20078;-81
2023/05/11 06:18:11;;;;;;;0.13;0.13;;;;;;;16.90;67.85;101598.38;5060751;28;20052;-80
2023/05/11 06:20:37;;;;;;;0.17;0.17;;;;;;;16.92;67.86;101599.22;5056177;28;20032;-81
2023/05/11 06:23:03;;;;;;;0.10;0.10;;;;;;;16.97;67.86;101607.06;5057612;28;20082;-82
2023/05/11 06:25:32;;;;;;;0.00;0.00;;;;;;;17.02;67.88;101605.09;5060364;28;20120;-81
2023/05/11 06:27:58;;;;;;;0.10;0.10;;;;;;;17.05;67.49;101609.50;5061453;28;20504;-81
2023/05/11 06:30:24;;;;;;;0.10;0.10;;;;;;;17.07;67.74;101603.16;5062184;28;20434;-81
2023/05/11 06:32:51;;;;;;;0.20;0.20;;;;;;;17.10;67.59;101603.03;5060374;28;20037;-80
2023/05/11 06:35:17;;;;;;;1.55;1.48;;;;;;;17.12;67.41;101606.56;5059168;28;20085;-80
2023/05/11 06:37:43;;;;;;;0.20;0.20;;;;;;;17.14;67.69;101604.69;5060177;28;20090;-80
2023/05/11 06:40:09;;;;;;;0.10;0.10;;;;;;;17.16;67.68;101603.75;5058006;28;20029;-81
2023/05/11 06:42:35;;;;;;;0.20;0.20;;;;;;;17.18;67.55;101601.91;5058562;28;20037;-80
2023/05/11 06:45:01;;;;;;;0.13;0.13;;;;;;;17.20;67.39;101608.09;5059011;28;20035;-81
2023/05/11 06:47:28;;;;;;;0.20;0.20;;;;;;;17.24;67.71;101610.59;5067709;28;20494;-78
2023/05/11 06:49:54;;;;;;;0.10;0.10;;;;;;;17.27;67.30;101613.16;5064770;28;20053;-80
2023/05/11 06:52:20;;;;;;;0.10;0.10;;;;;;;17.30;67.25;101609.50;5064984;28;20032;-80
2023/05/11 06:54:46;;;;;;;0.55;0.55;;;;;;;17.33;67.17;101609.38;5064470;28;20044;-80
2023/05/11 06:57:12;;;;;;;0.63;0.63;;;;;;;17.39;66.77;101619.00;5063776;28;20028;-82
2023/05/11 06:59:38;;;;;;;0.20;0.20;;;;;;;17.44;66.90;101617.03;5063366;28;20040;-80
2023/05/11 07:02:05;;;;;;;0.40;0.40;;;;;;;17.47;66.55;101614.25;5055810;28;20029;-80
2023/05/11 07:04:31;;;;;;;0.10;0.10;;;;;;;17.50;66.33;101621.31;5049051;28;20029;-79
2023/05/11 07:06:57;;;;;;;0.10;0.10;;;;;;;17.54;66.17;101625.63;5055501;28;20045;-79
2023/05/11 07:09:23;;;;;;;0.52;0.52;;;;;;;17.54;66.23;101628.28;5055676;28;20063;-79
2023/05/11 07:11:51;;;;;;;0.10;0.10;;;;;;;17.53;66.14;101623.88;5054430;28;20029;-79
2023/05/11 07:14:17;;;;;;;0.10;0.10;;;;;;;17.51;66.09;101625.72;5067518;28;20035;-78
2023/05/11 07:16:43;;;;;;;0.65;0.65;;;;;;;17.46;66.28;101626.75;5063584;28;20057;-80
2023/05/11 07:19:09;;;;;;;0.20;0.20;;;;;;;17.42;66.06;101630.50;5059565;28;20037;-79
2023/05/11 07:21:36;;;;;;;0.20;0.20;;;;;;;17.38;66.22;101620.78;5061567;28;20033;-79
2023/05/11 07:24:02;;;;;;;0.20;0.20;;;;;;;17.33;66.16;101617.41;5062680;28;20056;-80
2023/05/11 07:26:29;;;;;;;0.10;0.10;;;;;;;17.29;66.12;101613.09;5060520;28;20036;-79
2023/05/11 07:28:55;;;;;;;0.57;0.57;;;;;;;17.27;66.10;101615.84;5060916;28;20048;-79
2023/05/11 07:31:21;;;;;;;0.10;0.10;;;;;;;17.28;66.48;101616.72;5061185;28;20053;-79
2023/05/11 07:33:47;;;;;;;0.10;0.10;;;;;;;17.28;66.54;101622.06;5068083;28;20044;-80
2023/05/11 07:36:13;;;;;;;0.10;0.10;;;;;;;17.32;66.57;101629.09;5061559;28;20102;-80
2023/05/11 07:38:39;;;;;;;0.17;0.17;;;;;;;17.34;66.40;101627.19;5061513;28;20031;-80
2023/05/11 07:41:06;;;;;;;0.13;0.13;;;;;;;17.38;66.43;101631.50;5061142;28;20033;-81
2023/05/11 07:43:32;;;;;;;0.85;0.85;;;;;;;17.42;66.27;101630.50;5063818;28;20049;-81
2023/05/11 07:45:58;;;;;;;0.10;0.10;;;;;;;17.43;66.01;101631.34;5058531;28;20039;-81
2023/05/11 07:48:24;;;;;;;0.20;0.20;;;;;;;17.45;65.93;101634.88;5057673;28;20036;-80
2023/05/11 07:50:50;;;;;;;0.10;0.10;;;;;;;17.50;66.00;101637.38;5061678;28;20033;-81
2023/05/11 07:53:16;;;;;;;0.10;0.10;;;;;;;17.53;65.68;101631.91;5059594;28;20059;-80
2023/05/11 07:55:42;;;;;;;0.10;0.10;;;;;;;17.55;65.65;101630.91;5054968;28;20109;-80
2023/05/11 07:58:08;;;;;;;0.10;0.10;;;;;;;17.60;65.56;101633.44;5060603;28;20032;-80
2023/05/11 08:00:37;;;;;;;0.10;0.10;;;;;;;17.63;65.34;101627.94;5059949;28;20057;-80
2023/05/11 08:03:03;;;;;;;0.20;0.20;;;;;;;17.70;65.80;101628.59;5069264;28;20031;-80
2023/05/11 08:05:32;;;;;;;0.32;0.32;;;;;;;17.77;65.38;101636.34;5061394;28;20495;-80
2023/05/11 08:07:58;;;;;;;0.10;0.10;;;;;;;17.86;65.33;101632.44;5058691;28;20025;-81
2023/05/11 08:10:24;;;;;;;0.10;0.10;;;;;;;17.91;64.77;101632.28;5056493;28;20140;-80
2023/05/11 08:12:50;;;;;;;0.10;0.10;;;;;;;17.99;65.04;101632.00;5059456;28;20029;-80
2023/05/11 08:15:16;;;;;;;0.88;0.70;;;;;;;18.05;64.66;101635.31;5060806;28;20147;-81
2023/05/11 08:17:44;;;;;;;0.10;0.10;;;;;;;18.12;64.61;101635.97;5056240;28;20051;-80
2023/05/11 08:20:11;;;;;;;0.50;0.50;;;;;;;18.21;64.47;101634.72;5057078;28;20640;-81
2023/05/11 08:22:37;;;;;;;0.05;0.05;;;;;;;18.30;64.23;101629.00;5056324;28;20032;-81
2023/05/11 08:25:04;;;;;;;0.10;0.10;;;;;;;18.39;64.21;101625.97;5054864;28;20044;-86
2023/05/11 08:27:30;;;;;;;0.10;0.10;;;;;;;18.49;63.58;101628.25;5059581;28;20467;-84
2023/05/11 08:29:56;;;;;;;0.38;0.38;;;;;;;18.58;63.69;101633.25;5056881;28;20045;-83
2023/05/11 08:32:22;;;;;;;0.30;0.30;;;;;;;18.69;64.38;101625.63;5052750;28;20037;-81
2023/05/11 08:34:48;;;;;;;0.10;0.10;;;;;;;18.76;63.42;101635.16;5055450;28;20031;-78
2023/05/11 08:37:14;;;;;;;0.10;0.10;;;;;;;18.86;63.19;101632.09;5055363;28;20108;-84
2023/05/11 08:39:40;;;;;;;0.20;0.20;;;;;;;18.97;62.90;101632.53;5046883;28;20036;-88
2023/05/11 08:42:08;;;;;;;0.10;0.10;;;;;;;19.07;63.15;101633.88;5052212;28;20037;-78
2023/05/11 08:44:37;;;;;;;0.28;0.28;;;;;;;19.19;62.97;101632.50;5054867;28;20033;-78
2023/05/11 08:47:05;;;;;;;0.10;0.10;;;;;;;19.28;62.90;101636.59;5055668;28;20047;-81
2023/05/11 08:49:31;;;;;;;0.25;0.25;;;;;;;19.36;62.90;101631.72;5054206;28;20063;-80
2023/05/11 08:51:58;;;;;;;0.45;0.45;;;;;;;19.40;62.94;101633.34;5054439;28;20029;-80
2023/05/11 08:54:24;;;;;;;0.85;0.85;;;;;;;19.40;62.16;101635.16;5067958;28;20563;-78
2023/05/11 08:56:51;;;;;;;0.20;0.20;;;;;;;19.45;61.75;101630.47;5060365;28;20037;-77
2023/05/11 08:59:19;;;;;;;0.10;0.10;;;;;;;19.44;61.98;101628.72;5053131;28;20033;-79
2023/05/11 09:01:46;;;;;;;0.10;0.10;;;;;;;19.58;61.92;101630.78;5054557;28;20028;-79
2023/05/11 09:04:13;;;;;;;0.20;0.20;;;;;;;19.62;61.57;101636.91;5057690;28;20033;-79
2023/05/11 09:06:40;;;;;;;0.20;0.20;;;;;;;19.62;61.21;101632.38;5052276;28;20451;-80
2023/05/11 09:09:07;;;;;;;0.28;0.28;;;;;;;19.68;61.45;101637.47;5057682;28;20063;-79
2023/05/11 09:11:33;;;;;;;0.10;0.10;;;;;;;19.72;62.14;101636.38;5059890;28;20118;-79
2023/05/11 09:14:05;;;;;;;0.10;0.10;;;;;;;19.78;61.92;101631.69;5058965;28;20034;-79
2023/05/11 09:16:31;;;;;;;0.13;0.13;;;;;;;19.77;60.25;101635.31;5056387;28;20051;-80
2023/05/11 09:19:01;;;;;;;1.15;1.15;;;;;;;19.81;60.08;101634.22;5058407;28;20648;-79
2023/05/11 09:21:28;;;;;;;0.50;0.50;;;;;;;19.92;61.55;101633.78;5058734;28;20037;-78
2023/05/11 09:23:58;;;;;;;0.10;0.10;;;;;;;19.98;60.24;101638.84;5062274;28;20021;-80
2023/05/11 09:26:28;;;;;;;0.65;0.65;;;;;;;20.06;61.30;101642.03;5065130;28;20403;-78
2023/05/11 09:28:57;;;;;;;0.10;0.10;;;;;;;20.12;60.48;101635.50;5064066;28;20134;-80
2023/05/11 09:31:44;;;;;;;0.10;0.10;;;;;;;20.27;58.94;101639.28;5061776;28;20032;-79
2023/05/11 09:34:19;;;;;;;0.08;0.08;;;;;;;20.29;57.93;101632.88;5065399;28;20093;-79
2023/05/11 09:42:22;;;;;;;0.10;0.10;;;;;;;20.76;57.53;101641.41;5151427;27;20784;-80
2023/05/11 09:44:48;;;;;;;0.10;0.10;;;;;;;20.71;57.75;101630.88;5130099;27;20036;-79
2023/05/11 09:47:16;;;;;;;0.20;0.20;;;;;;;20.69;57.06;101630.91;5131309;27;20437;-80
2023/05/11 09:49:43;;;;;;;0.10;0.10;;;;;;;20.73;58.76;101620.88;5123899;27;20066;-80
2023/05/11 09:52:11;;;;;;;0.10;0.10;;;;;;;20.71;57.53;101633.56;5113872;28;20473;-81
2023/05/11 09:54:50;;;;;;;1.05;1.02;;;;;;;20.81;59.84;101625.88;5128163;28;20023;-79
2023/05/11 10:00:00;;;;;;;0.22;0.22;;;;;;;20.60;57.48;101633.19;5097904;27;20378;-78
2023/05/11 10:02:29;;;;;;;0.10;0.10;;;;;;;20.56;57.72;101635.19;5089596;28;20036;-80
2023/05/11 10:04:57;;;;;;;0.10;0.10;;;;;;;20.53;57.65;101629.94;5091730;28;20056;-78
2023/05/11 10:07:26;;;;;;;0.35;0.35;;;;;;;20.47;56.70;101635.63;5090962;28;20073;-79
2023/05/11 10:09:55;;;;;;;0.10;0.10;;;;;;;20.41;58.28;101635.91;5088587;28;20035;-79
2023/05/11 10:12:24;;;;;;;0.45;0.45;;;;;;;20.42;58.10;101638.53;5087436;28;20422;-81
2023/05/11 10:14:53;;;;;;;0.08;0.08;;;;;;;20.50;57.65;101632.78;5090917;28;20128;-80
2023/05/11 10:17:20;;;;;;;0.22;0.22;;;;;;;20.58;58.74;101637.78;5088325;28;20058;-80
2023/05/11 10:19:50;;;;;;;0.10;0.10;;;;;;;20.69;57.91;101636.28;5085127;28;20024;-81
2023/05/11 10:22:17;;;;;;;2.38;0.50;;;;;;;20.75;55.86;101639.66;5086517;28;20047;-79
2023/05/11 10:24:43;;;;;;;0.52;0.52;;;;;;;20.82;56.35;101623.13;5091688;28;20070;-80
2023/05/11 10:27:17;;;;;;;0.20;0.20;;;;;;;20.91;56.66;101629.88;5090056;28;20111;-80
2023/05/11 10:29:47;;;;;;;0.03;0.03;;;;;;;21.05;57.17;101625.56;5092101;28;20024;-79
2023/05/11 10:32:16;;;;;;;1.85;0.50;;;;;;;21.13;56.51;101631.44;5091079;28;20028;-79
2023/05/11 10:34:44;;;;;;;0.20;0.20;;;;;;;21.20;55.60;101627.47;5087041;28;20118;-80
2023/05/11 10:37:10;;;;;;;0.45;0.45;;;;;;;21.26;56.27;101631.66;5092168;28;20032;-80
2023/05/11 10:39:38;;;;;;;1.20;1.10;;;;;;;21.31;56.73;101630.47;5093282;28;20022;-76
2023/05/11 10:51:07;;;;;;;0.40;0.40;;;;;;;21.08;55.50;101626.28;5067805;27;20802;-81
2023/05/11 10:53:39;;;;;;;;;;;;;;;21.08;56.34;101620.91;5029253;28;20041;-81
2023/05/11 10:56:13;;;;;;;;;;;;;;;20.97;55.73;101628.66;5030372;28;19913;-79
2023/05/11 11:01:45;;;;;;;0.10;0.10;;;;;;;20.61;57.06;101627.75;5115110;27;20731;-79
2023/05/11 11:04:12;;;;;;;0.30;0.30;;;;;;;20.60;56.90;101626.00;5090487;28;20024;-80
2023/05/11 11:06:41;;;;;;;1.45;0.57;;;;;;;20.65;56.81;101632.00;5091773;28;20024;-81
2023/05/11 11:09:12;;;;;;;0.10;0.10;;;;;;;20.67;56.51;101630.13;5085168;28;20055;-81
2023/05/11 11:11:41;;;;;;;0.32;0.32;;;;;;;20.68;56.89;101631.84;5082860;28;20028;-79
2023/05/11 11:14:08;;;;;;;0.20;0.20;;;;;;;20.65;56.24;101632.00;5088111;28;20054;-79
2023/05/11 11:16:36;;;;;;;0.20;0.20;;;;;;;20.61;56.47;101633.13;5091964;28;20552;-81
2023/05/11 11:25:35;;;;;;;0.10;0.10;;;;;;;20.41;55.38;101627.84;5100756;27;20240;-80
2023/05/11 11:28:01;;;;;;;0.22;0.22;;;;;;;20.39;56.59;101635.09;5089164;28;20092;-81
2023/05/11 11:30:29;;;;;;;0.10;0.10;;;;;;;20.32;56.48;101627.34;5099854;28;20064;-80
2023/05/11 11:38:18;;;;;;;5.30;0.95;;;;;;;19.76;58.01;101629.06;5111046;27;20415;-78
2023/05/11 11:40:51;;;;;;;0.20;0.20;;;;;;;19.53;58.55;101632.81;5104072;28;20493;-79
2023/05/11 11:43:27;;;;;;;0.20;0.20;;;;;;;19.38;59.18;101635.22;5102796;28;20032;-79
2023/05/11 11:48:42;;;;;;;0.10;0.10;;;;;;;19.03;59.99;101628.75;5115009;27;20410;-79
2023/05/11 11:51:09;;;;;;;0.10;0.10;;;;;;;18.84;60.00;101633.97;5126308;28;20031;-79
2023/05/11 12:01:34;;;;;;;0.57;0.35;;;;;;;17.58;62.65;101636.16;5106743;27;20365;-79
2023/05/11 12:06:56;;;;;;;0.28;0.28;;;;;;;17.24;63.84;101652.56;5095108;27;1347690;-81
2023/05/11 12:09:23;;;;;;;0.10;0.10;;;;;;;17.04;64.50;101661.31;5137776;27;20029;-81
2023/05/11 12:11:50;;;;;;;0.08;0.08;;;;;;;16.92;65.04;101662.56;5138547;27;20025;-82
2023/05/11 12:14:16;;;;;;;0.17;0.17;;;;;;;16.82;65.07;101672.69;5139488;27;20015;-80
2023/05/11 12:16:58;;;;;;;0.32;0.32;;;;;;;16.74;65.62;101670.25;5137838;27;20086;-81